PS23 weather

Windy Hill Airport
Curwensville, Pennsylvania, United States

Public forecast

Using degrees Fahrenheit for public forecast. Weather courtesy of forecast.io.

Closest aviation weather report (METAR) to Windy Hill Airport

Closest report is Bedford County Airport, 1.6 nm (3.0 km) E. Retrieved 2019/11/21 22:30 UTC (20 minutes ago):

KHMZ 212230Z AUTO 14004KT 10SM OVC110 08/M01 A3003 RMK AO2 T00821006

Closest aviation forecast (TAF) to Windy Hill Airport

Closest forecast is Altoona Blair County Airport, 16.4 nm (30.4 km) NE. Retrieved 2019/11/21 18:12 UTC (5 hours ago):

TAF KAOO 211810Z 2118/2218 22005KT P6SM BKN120 OVC250 FM220100 21007KT P6SM OVC050 FM221100 24007KT P6SM -SHRA OVC035